createdAt,value
2023-01-09T00:01:23.664Z,-14.20
2023-01-09T00:03:51.685Z,-14.16
2023-01-09T00:06:21.181Z,-14.15
2023-01-09T00:08:49.124Z,-14.13
2023-01-09T00:11:17.388Z,-14.17
2023-01-09T00:13:45.513Z,-14.21
2023-01-09T00:16:13.495Z,-14.23
2023-01-09T00:18:41.516Z,-14.19
2023-01-09T00:21:10.578Z,-14.23
2023-01-09T00:23:39.956Z,-14.24
2023-01-09T00:26:08.929Z,-14.28
2023-01-09T00:28:37.421Z,-14.26
2023-01-09T00:31:06.567Z,-14.27
2023-01-09T00:33:35.517Z,-14.37
2023-01-09T00:36:04.086Z,-14.39
2023-01-09T00:38:32.072Z,-14.42
2023-01-09T00:41:01.919Z,-14.51
2023-01-09T00:43:32.492Z,-14.65
2023-01-09T00:46:01.811Z,-14.66
2023-01-09T00:48:29.943Z,-14.64
2023-01-09T00:50:59.485Z,-14.75
2023-01-09T00:53:29.236Z,-14.74
2023-01-09T00:55:58.142Z,-14.83
2023-01-09T00:58:27.815Z,-14.80
2023-01-09T01:00:55.835Z,-14.83
2023-01-09T01:03:24.005Z,-14.93
2023-01-09T01:06:09.431Z,-14.93
2023-01-09T01:08:37.384Z,-14.95
2023-01-09T01:11:06.090Z,-15.00
2023-01-09T01:13:35.498Z,-15.08
2023-01-09T01:16:05.526Z,-15.02
2023-01-09T01:18:33.674Z,-14.99
2023-01-09T01:21:01.752Z,-15.03
2023-01-09T01:23:29.742Z,-15.01
2023-01-09T01:25:57.766Z,-15.06
2023-01-09T01:28:25.767Z,-15.04
2023-01-09T01:30:55.337Z,-14.99
2023-01-09T01:33:23.325Z,-15.06
2023-01-09T01:35:51.238Z,-15.13
2023-01-09T01:38:19.257Z,-15.10
2023-01-09T01:40:53.510Z,-15.10
2023-01-09T01:43:21.469Z,-14.99
2023-01-09T01:45:49.438Z,-14.94
2023-01-09T01:48:21.797Z,-14.92
2023-01-09T01:50:51.512Z,-14.90
2023-01-09T01:53:21.432Z,-14.75
2023-01-09T01:55:55.251Z,-14.75
2023-01-09T01:58:23.367Z,-14.68
2023-01-09T02:00:51.597Z,-14.67
2023-01-09T02:03:24.149Z,-14.75
2023-01-09T02:05:52.190Z,-14.77
2023-01-09T02:08:20.256Z,-14.73
2023-01-09T02:10:48.968Z,-14.77
2023-01-09T02:13:17.271Z,-14.79
2023-01-09T02:15:52.720Z,-14.79
2023-01-09T02:18:39.009Z,-14.80
2023-01-09T02:21:11.639Z,-14.73
2023-01-09T02:23:54.387Z,-14.64
2023-01-09T02:26:46.296Z,-14.59
2023-01-09T02:29:32.996Z,-14.66
2023-01-09T02:32:05.539Z,-14.60
2023-01-09T02:34:37.877Z,-14.61
2023-01-09T02:37:09.132Z,-14.58
2023-01-09T02:39:43.559Z,-14.58
2023-01-09T02:42:14.852Z,-14.54
2023-01-09T02:44:43.232Z,-14.57
2023-01-09T02:47:26.007Z,-14.57
2023-01-09T02:49:56.483Z,-14.57
2023-01-09T02:52:33.316Z,-14.57
2023-01-09T02:55:06.545Z,-14.67
2023-01-09T02:57:42.294Z,-14.68
2023-01-09T03:00:12.694Z,-14.73
2023-01-09T03:02:43.769Z,-14.76
2023-01-09T03:05:19.231Z,-14.91
2023-01-09T03:07:49.839Z,-14.85
2023-01-09T03:10:20.138Z,-14.91
2023-01-09T03:12:49.919Z,-15.02
2023-01-09T03:15:19.919Z,-15.10
2023-01-09T03:17:49.666Z,-15.08
2023-01-09T03:20:21.848Z,-15.20
2023-01-09T03:22:54.465Z,-15.18
2023-01-09T03:25:22.497Z,-15.16
2023-01-09T03:27:53.613Z,-15.28
2023-01-09T03:30:21.735Z,-15.16
2023-01-09T03:32:49.705Z,-15.19
2023-01-09T03:35:17.692Z,-15.17
2023-01-09T03:37:47.233Z,-15.09
2023-01-09T03:40:15.276Z,-15.11
2023-01-09T03:42:43.167Z,-15.11
2023-01-09T03:45:11.687Z,-15.14
2023-01-09T03:47:39.717Z,-15.17
2023-01-09T03:50:08.403Z,-15.20
2023-01-09T03:52:37.012Z,-15.22
2023-01-09T03:55:06.901Z,-15.22
2023-01-09T03:57:34.967Z,-15.30
2023-01-09T04:00:02.948Z,-15.38
2023-01-09T04:02:31.507Z,-15.34
2023-01-09T04:04:59.498Z,-15.42
2023-01-09T04:07:27.475Z,-15.35
2023-01-09T04:09:55.499Z,-15.29
2023-01-09T04:12:24.843Z,-15.29
2023-01-09T04:14:52.764Z,-15.31
2023-01-09T04:17:20.782Z,-15.42
2023-01-09T04:19:48.867Z,-15.46
2023-01-09T04:22:16.866Z,-15.42
2023-01-09T04:24:44.934Z,-15.37
2023-01-09T04:27:13.347Z,-15.43
2023-01-09T04:29:42.772Z,-15.37
2023-01-09T04:32:10.874Z,-15.44
2023-01-09T04:34:38.972Z,-15.40
2023-01-09T04:37:06.907Z,-15.39
2023-01-09T04:39:34.906Z,-15.51
2023-01-09T04:42:02.923Z,-15.57
2023-01-09T04:44:30.991Z,-15.43
2023-01-09T04:47:00.429Z,-15.52
2023-01-09T04:49:28.677Z,-15.47
2023-01-09T04:51:57.138Z,-15.46
2023-01-09T04:54:25.205Z,-15.54
2023-01-09T04:56:53.090Z,-15.56
2023-01-09T04:59:21.159Z,-15.53
2023-01-09T05:01:49.478Z,-15.62
2023-01-09T05:04:19.339Z,-15.73
2023-01-09T05:06:49.584Z,-15.57
2023-01-09T05:09:17.579Z,-15.56
2023-01-09T05:11:45.721Z,-15.62
2023-01-09T05:14:14.062Z,-15.45
2023-01-09T05:16:42.257Z,-15.74
2023-01-09T05:19:10.530Z,-15.56
2023-01-09T05:21:39.961Z,-15.69
2023-01-09T05:24:08.246Z,-15.59
2023-01-09T05:26:36.383Z,-15.69
2023-01-09T05:29:04.653Z,-15.71
2023-01-09T05:31:32.627Z,-15.79
2023-01-09T05:34:01.001Z,-15.79
2023-01-09T05:36:29.922Z,-15.84
2023-01-09T05:38:59.562Z,-15.76
2023-01-09T05:41:27.683Z,-15.74
2023-01-09T05:43:55.745Z,-15.73
2023-01-09T05:46:23.798Z,-15.86
2023-01-09T05:48:51.838Z,-15.86
2023-01-09T05:51:19.954Z,-15.97
2023-01-09T05:53:48.083Z,-16.05
2023-01-09T05:56:18.095Z,-16.15
2023-01-09T05:58:46.161Z,-16.21
2023-01-09T06:01:14.207Z,-16.17
2023-01-09T06:03:42.276Z,-16.25
2023-01-09T06:06:10.262Z,-16.22
2023-01-09T06:08:38.217Z,-16.22
2023-01-09T06:11:06.458Z,-16.19
2023-01-09T06:13:35.954Z,-16.33
2023-01-09T06:16:03.983Z,-16.19
2023-01-09T06:18:32.566Z,-16.19
2023-01-09T06:21:00.557Z,-16.19
2023-01-09T06:23:28.531Z,-16.06
2023-01-09T06:25:56.499Z,-16.08
2023-01-09T06:28:24.639Z,-16.05
2023-01-09T06:30:54.411Z,-16.04
2023-01-09T06:33:22.559Z,-15.96
2023-01-09T06:35:50.503Z,-15.82
2023-01-09T06:38:18.728Z,-15.77
2023-01-09T06:40:46.841Z,-15.70
2023-01-09T06:43:15.053Z,-15.71
2023-01-09T06:45:43.506Z,-15.65
2023-01-09T06:48:13.447Z,-15.52
2023-01-09T06:50:41.702Z,-15.56
2023-01-09T06:53:10.809Z,-15.42
2023-01-09T06:55:38.890Z,-15.48
2023-01-09T06:58:06.898Z,-15.37
2023-01-09T07:00:34.913Z,-15.30
2023-01-09T07:03:02.991Z,-15.22
2023-01-09T07:05:32.699Z,-15.11
2023-01-09T07:08:00.827Z,-15.09
2023-01-09T07:10:28.924Z,-15.03
2023-01-09T07:12:57.070Z,-15.05
2023-01-09T07:15:25.020Z,-15.07
2023-01-09T07:17:53.451Z,-15.15
2023-01-09T07:20:21.926Z,-14.99
2023-01-09T07:22:51.347Z,-14.97
2023-01-09T07:25:19.512Z,-14.95
2023-01-09T07:27:47.712Z,-14.91
2023-01-09T07:30:16.157Z,-14.97
2023-01-09T07:32:44.187Z,-14.99
2023-01-09T07:35:12.680Z,-14.78
2023-01-09T07:37:40.844Z,-14.70
2023-01-09T07:40:11.351Z,-14.67
2023-01-09T07:42:39.384Z,-14.67
2023-01-09T07:45:08.095Z,-14.69
2023-01-09T07:47:36.396Z,-14.63
2023-01-09T07:50:04.461Z,-14.61
2023-01-09T07:52:32.469Z,-14.62
2023-01-09T07:55:00.515Z,-14.67
2023-01-09T07:57:30.834Z,-14.70
2023-01-09T08:00:00.693Z,-14.70
2023-01-09T08:02:28.722Z,-14.61
2023-01-09T08:04:56.972Z,-14.64
2023-01-09T08:07:25.013Z,-14.67
2023-01-09T08:09:55.234Z,-14.64
2023-01-09T08:12:23.257Z,-14.58
2023-01-09T08:14:53.187Z,-14.57
2023-01-09T08:17:21.145Z,-14.47
2023-01-09T08:19:49.219Z,-14.39
2023-01-09T08:22:17.296Z,-14.38
2023-01-09T08:24:45.306Z,-14.28
2023-01-09T08:27:13.375Z,-14.27
2023-01-09T08:29:41.365Z,-14.26
2023-01-09T08:32:11.113Z,-14.22
2023-01-09T08:34:39.101Z,-14.35
2023-01-09T08:37:07.126Z,-14.31
2023-01-09T08:39:36.381Z,-14.26
2023-01-09T08:42:22.221Z,-14.33
2023-01-09T08:45:07.802Z,-14.34
2023-01-09T08:47:37.559Z,-14.47
2023-01-09T08:50:05.978Z,-14.41
2023-01-09T08:52:33.988Z,-14.55
2023-01-09T08:55:02.208Z,-14.68
2023-01-09T08:57:31.265Z,-14.81
2023-01-09T08:59:59.388Z,-14.73
2023-01-09T09:02:27.634Z,-14.80
2023-01-09T09:04:57.007Z,-14.84
2023-01-09T09:07:27.598Z,-15.00
2023-01-09T09:09:55.806Z,-14.92
2023-01-09T09:12:24.304Z,-14.95
2023-01-09T09:15:10.142Z,-15.10
2023-01-09T09:17:38.464Z,-14.97
2023-01-09T09:20:08.839Z,-14.90
2023-01-09T09:22:37.303Z,-14.99
2023-01-09T09:25:05.715Z,-15.01
2023-01-09T09:27:33.767Z,-15.02
2023-01-09T09:30:02.026Z,-15.11
2023-01-09T09:32:30.774Z,-15.12
2023-01-09T09:34:58.897Z,-14.98
2023-01-09T09:37:28.331Z,-14.98
2023-01-09T09:39:57.921Z,-15.06
2023-01-09T09:42:50.268Z,-14.98
2023-01-09T09:45:25.165Z,-15.00
2023-01-09T09:47:58.302Z,-14.96
2023-01-09T09:50:35.268Z,-15.01
2023-01-09T09:53:07.956Z,-14.86
2023-01-09T09:55:38.636Z,-14.83
2023-01-09T09:58:08.817Z,-14.79
2023-01-09T10:00:37.148Z,-14.73
2023-01-09T10:03:07.386Z,-14.83
2023-01-09T10:05:36.255Z,-14.76
2023-01-09T10:08:15.821Z,-14.71
2023-01-09T10:10:48.178Z,-14.60
2023-01-09T10:13:44.577Z,-14.64
2023-01-09T10:16:21.820Z,-14.55
2023-01-09T10:18:56.394Z,-14.64
2023-01-09T10:21:31.733Z,-14.66
2023-01-09T10:24:08.348Z,-14.66
2023-01-09T10:26:41.073Z,-14.55
2023-01-09T10:29:25.323Z,-14.66
2023-01-09T10:32:01.027Z,-14.65
2023-01-09T10:34:35.165Z,-14.61
2023-01-09T10:37:06.814Z,-14.51
2023-01-09T10:39:39.913Z,-14.48
2023-01-09T10:42:12.062Z,-14.48
2023-01-09T10:44:43.659Z,-14.44
2023-01-09T10:47:17.120Z,-14.59
2023-01-09T10:49:46.562Z,-14.68
2023-01-09T10:52:18.373Z,-14.90
2023-01-09T10:54:50.922Z,-14.86
2023-01-09T10:57:26.507Z,-14.95
2023-01-09T10:59:54.643Z,-14.93
2023-01-09T11:02:28.235Z,-15.05
2023-01-09T11:04:56.651Z,-15.05
2023-01-09T11:07:26.732Z,-15.11
2023-01-09T11:10:00.156Z,-15.17
2023-01-09T11:12:28.850Z,-15.24
2023-01-09T11:14:56.969Z,-15.06
2023-01-09T11:17:28.150Z,-15.07
2023-01-09T11:20:03.318Z,-15.11
2023-01-09T11:22:33.204Z,-15.15
2023-01-09T11:25:03.615Z,-15.14
2023-01-09T11:27:31.793Z,-15.32
2023-01-09T11:30:14.534Z,-15.27
2023-01-09T11:32:43.287Z,-15.27
2023-01-09T11:35:17.428Z,-15.19
2023-01-09T11:37:46.139Z,-15.51
2023-01-09T11:40:21.309Z,-15.65
2023-01-09T11:43:06.321Z,-15.61
2023-01-09T11:45:36.168Z,-15.73
2023-01-09T11:48:17.618Z,-15.72
2023-01-09T11:50:55.415Z,-15.74
2023-01-09T11:53:23.974Z,-15.67
2023-01-09T11:55:57.180Z,-15.73
2023-01-09T11:58:25.296Z,-15.66
2023-01-09T12:00:57.503Z,-15.67
2023-01-09T12:03:29.186Z,-15.70
2023-01-09T12:06:01.623Z,-15.71
2023-01-09T12:08:34.983Z,-15.78
2023-01-09T12:11:17.144Z,-15.75
2023-01-09T12:13:52.881Z,-15.89
2023-01-09T12:16:25.766Z,-15.77
2023-01-09T12:18:58.644Z,-15.74
2023-01-09T12:21:33.970Z,-15.76
2023-01-09T12:24:16.768Z,-15.96
2023-01-09T12:26:52.517Z,-15.94
2023-01-09T12:29:38.924Z,-16.03
2023-01-09T12:32:21.834Z,-16.14
2023-01-09T12:34:59.357Z,-16.15
2023-01-09T12:37:42.802Z,-16.31
2023-01-09T12:40:18.535Z,-16.25
2023-01-09T12:42:53.242Z,-16.31
2023-01-09T12:45:35.574Z,-16.43
2023-01-09T12:48:05.721Z,-16.40
2023-01-09T12:50:46.300Z,-16.42
2023-01-09T12:53:18.815Z,-16.49
2023-01-09T12:55:49.204Z,-16.46
2023-01-09T12:58:24.193Z,-16.55
2023-01-09T13:00:54.422Z,-16.58
2023-01-09T13:03:26.245Z,-16.72
2023-01-09T13:05:57.604Z,-16.64
2023-01-09T13:08:28.625Z,-16.64
2023-01-09T13:10:59.969Z,-16.67
2023-01-09T13:13:36.028Z,-16.61
2023-01-09T13:16:07.715Z,-16.67
2023-01-09T13:18:41.206Z,-16.76
2023-01-09T13:21:09.803Z,-16.86
2023-01-09T13:23:44.069Z,-16.81
2023-01-09T13:26:17.449Z,-16.89
2023-01-09T13:28:48.551Z,-16.94
2023-01-09T13:31:36.471Z,-16.93
2023-01-09T13:34:11.236Z,-16.97
2023-01-09T13:36:47.741Z,-16.95
2023-01-09T13:39:21.552Z,-16.96
2023-01-09T13:42:10.073Z,-17.02
2023-01-09T13:44:39.892Z,-17.09
2023-01-09T13:47:17.366Z,-17.08
2023-01-09T13:50:15.894Z,-17.09
2023-01-09T13:52:44.408Z,-17.08
2023-01-09T13:55:27.276Z,-17.11
2023-01-09T13:58:15.196Z,-17.15
2023-01-09T14:00:51.660Z,-17.30
2023-01-09T14:03:21.745Z,-17.40
2023-01-09T14:06:08.516Z,-17.32
2023-01-09T14:08:36.573Z,-17.26
2023-01-09T14:11:05.999Z,-17.40
2023-01-09T14:13:35.297Z,-17.35
2023-01-09T14:16:06.408Z,-17.28
2023-01-09T14:18:35.403Z,-17.37
2023-01-09T14:21:04.868Z,-17.32
2023-01-09T14:23:51.007Z,-17.23
2023-01-09T14:26:21.795Z,-17.36
2023-01-09T14:28:49.914Z,-17.24
2023-01-09T14:31:38.714Z,-17.27
2023-01-09T14:34:31.039Z,-17.26
2023-01-09T14:37:01.053Z,-17.21
2023-01-09T14:39:31.311Z,-17.34
2023-01-09T14:42:05.815Z,-17.23
2023-01-09T14:44:40.978Z,-17.21
2023-01-09T14:47:16.248Z,-17.21
2023-01-09T14:49:50.517Z,-17.26
2023-01-09T14:52:22.957Z,-17.29
2023-01-09T14:54:52.177Z,-17.22
2023-01-09T14:57:27.387Z,-17.36
2023-01-09T14:59:58.904Z,-17.31
2023-01-09T15:02:28.726Z,-17.27
2023-01-09T15:05:01.178Z,-17.35
2023-01-09T15:07:34.497Z,-17.39
2023-01-09T15:10:03.580Z,-17.32
2023-01-09T15:12:32.765Z,-17.28
2023-01-09T15:15:03.186Z,-17.41
2023-01-09T15:17:32.635Z,-17.37
2023-01-09T15:20:02.972Z,-17.41
2023-01-09T15:22:31.843Z,-17.26
2023-01-09T15:25:00.330Z,-17.38
2023-01-09T15:27:28.447Z,-17.41
2023-01-09T15:29:56.534Z,-17.37
2023-01-09T15:32:26.697Z,-17.29
2023-01-09T15:34:55.720Z,-17.45
2023-01-09T15:37:34.529Z,-17.36
2023-01-09T15:40:03.641Z,-17.45
2023-01-09T15:42:50.960Z,-17.40
2023-01-09T15:45:23.120Z,-17.38
2023-01-09T15:47:51.135Z,-17.35
2023-01-09T15:50:22.438Z,-17.38
2023-01-09T15:52:52.474Z,-17.43
2023-01-09T15:55:35.353Z,-17.38
2023-01-09T15:58:03.856Z,-17.40
2023-01-09T16:00:39.440Z,-17.51
2023-01-09T16:03:16.277Z,-17.54
2023-01-09T16:05:45.421Z,-17.50
2023-01-09T16:08:22.219Z,-17.52
2023-01-09T16:10:52.049Z,-17.58
2023-01-09T16:13:22.312Z,-17.63
2023-01-09T16:15:50.767Z,-17.54
2023-01-09T16:18:23.062Z,-17.67
2023-01-09T16:20:51.414Z,-17.55
2023-01-09T16:23:23.716Z,-17.54
2023-01-09T16:25:51.729Z,-17.62
2023-01-09T16:28:22.065Z,-17.57
2023-01-09T16:33:36.781Z,-17.66
2023-01-09T16:36:06.450Z,-17.63
2023-01-09T16:38:35.992Z,-17.62
2023-01-09T16:41:22.857Z,-17.56
2023-01-09T16:43:51.767Z,-17.67
2023-01-09T16:46:21.208Z,-17.58
2023-01-09T16:48:49.606Z,-17.65
2023-01-09T16:51:18.527Z,-17.61
2023-01-09T16:53:47.988Z,-17.61
2023-01-09T16:56:18.245Z,-17.46
2023-01-09T16:58:46.489Z,-17.63
2023-01-09T17:01:15.521Z,-17.68
2023-01-09T17:03:44.477Z,-17.67
2023-01-09T17:06:16.395Z,-17.71
2023-01-09T17:08:45.321Z,-17.66
2023-01-09T17:11:20.256Z,-17.74
2023-01-09T17:13:48.780Z,-17.75
2023-01-09T17:16:20.247Z,-17.69
2023-01-09T17:18:48.259Z,-17.80
2023-01-09T17:21:17.450Z,-17.81
2023-01-09T17:23:45.505Z,-17.81
2023-01-09T17:26:40.068Z,-17.79
2023-01-09T17:29:08.335Z,-17.87
2023-01-09T17:31:38.602Z,-17.88
2023-01-09T17:34:06.684Z,-17.88
2023-01-09T17:36:35.411Z,-17.78
2023-01-09T17:39:03.643Z,-17.78
2023-01-09T17:41:33.908Z,-17.72
2023-01-09T17:44:02.125Z,-17.65
2023-01-09T17:46:31.596Z,-17.55
2023-01-09T17:48:59.622Z,-17.62
2023-01-09T17:51:28.361Z,-17.63
2023-01-09T17:53:56.627Z,-17.72
2023-01-09T17:56:25.696Z,-17.73
2023-01-09T17:58:55.310Z,-17.66
2023-01-09T18:01:23.487Z,-17.66
2023-01-09T18:03:51.588Z,-17.65
2023-01-09T18:06:20.330Z,-17.69
2023-01-09T18:08:48.636Z,-17.68
2023-01-09T18:11:18.343Z,-17.78
2023-01-09T18:13:46.578Z,-17.66
2023-01-09T18:16:17.155Z,-17.67
2023-01-09T18:18:45.555Z,-17.75
2023-01-09T18:21:16.159Z,-17.71
2023-01-09T18:23:44.201Z,-17.83
2023-01-09T18:26:18.613Z,-17.66
2023-01-09T18:28:46.736Z,-17.69
2023-01-09T18:31:17.539Z,-17.70
2023-01-09T18:33:47.026Z,-17.74
2023-01-09T18:36:15.120Z,-17.67
2023-01-09T18:38:43.362Z,-17.64
2023-01-09T18:41:16.079Z,-17.67
2023-01-09T18:43:44.306Z,-17.97
2023-01-09T18:46:12.487Z,-17.78
2023-01-09T18:48:42.033Z,-17.82
2023-01-09T18:51:11.816Z,-17.78
2023-01-09T18:53:39.901Z,-17.83
2023-01-09T18:56:07.998Z,-17.80
2023-01-09T18:58:36.051Z,-17.93
2023-01-09T19:01:04.156Z,-17.89
2023-01-09T19:03:32.904Z,-17.94
2023-01-09T19:06:03.018Z,-17.90
2023-01-09T19:08:31.378Z,-17.92
2023-01-09T19:10:59.688Z,-18.01
2023-01-09T19:13:30.569Z,-18.11
2023-01-09T19:15:59.306Z,-18.25
2023-01-09T19:18:28.162Z,-18.19
2023-01-09T19:20:56.719Z,-18.07
2023-01-09T19:23:26.195Z,-18.14
2023-01-09T19:25:54.569Z,-18.21
2023-01-09T19:28:23.031Z,-18.10
2023-01-09T19:30:55.521Z,-18.33
2023-01-09T19:33:24.690Z,-18.11
2023-01-09T19:35:53.116Z,-18.19
2023-01-09T19:38:22.772Z,-18.09
2023-01-09T19:40:52.288Z,-18.06
2023-01-09T19:43:26.883Z,-18.01
2023-01-09T19:45:55.063Z,-18.08
2023-01-09T19:48:23.791Z,-18.02
2023-01-09T19:50:52.609Z,-18.02
2023-01-09T19:53:20.607Z,-18.04
2023-01-09T19:55:48.672Z,-17.97
2023-01-09T19:58:18.469Z,-18.05
2023-01-09T20:00:46.486Z,-18.00
2023-01-09T20:03:14.549Z,-18.06
2023-01-09T20:05:42.606Z,-18.12
2023-01-09T20:08:11.774Z,-18.05
2023-01-09T20:10:40.733Z,-18.09
2023-01-09T20:13:08.880Z,-18.03
2023-01-09T20:15:39.030Z,-18.09
2023-01-09T20:18:07.978Z,-18.10
2023-01-09T20:20:36.352Z,-18.05
2023-01-09T20:23:04.432Z,-18.01
2023-01-09T20:25:32.525Z,-18.10
2023-01-09T20:28:00.591Z,-18.05
2023-01-09T20:30:28.635Z,-18.13
2023-01-09T20:33:00.063Z,-18.13
2023-01-09T20:35:28.305Z,-18.08
2023-01-09T20:37:56.526Z,-18.13
2023-01-09T20:40:24.613Z,-18.13
2023-01-09T20:42:52.648Z,-18.22
2023-01-09T20:45:20.861Z,-18.18
2023-01-09T20:47:48.891Z,-18.21
2023-01-09T20:50:18.879Z,-18.21
2023-01-09T20:52:46.829Z,-18.17
2023-01-09T20:55:15.135Z,-18.17
2023-01-09T20:57:43.114Z,-18.17
2023-01-09T21:00:11.764Z,-18.12
2023-01-09T21:02:40.101Z,-18.12
2023-01-09T21:05:08.685Z,-18.11
2023-01-09T21:07:38.523Z,-18.19
2023-01-09T21:10:07.130Z,-18.27
2023-01-09T21:12:38.571Z,-18.17
2023-01-09T21:15:08.749Z,-18.20
2023-01-09T21:17:37.882Z,-18.05
2023-01-09T21:20:07.675Z,-18.07
2023-01-09T21:22:35.999Z,-18.05
2023-01-09T21:25:05.880Z,-18.04
2023-01-09T21:27:35.103Z,-18.05
2023-01-09T21:30:03.412Z,-18.07
2023-01-09T21:32:32.925Z,-18.10
2023-01-09T21:35:04.521Z,-18.03
2023-01-09T21:37:33.570Z,-18.15
2023-01-09T21:40:02.039Z,-18.02
2023-01-09T21:42:50.474Z,-17.97
2023-01-09T21:45:50.727Z,-17.96
2023-01-09T21:48:18.815Z,-18.03
2023-01-09T21:50:46.793Z,-18.12
2023-01-09T21:53:14.814Z,-17.95
2023-01-09T21:55:43.083Z,-17.93
2023-01-09T21:58:12.814Z,-17.86
2023-01-09T22:00:41.310Z,-17.80
2023-01-09T22:03:09.445Z,-18.02
2023-01-09T22:05:37.642Z,-17.93
2023-01-09T22:08:05.690Z,-17.93
2023-01-09T22:10:33.806Z,-17.87
2023-01-09T22:13:17.932Z,-18.01
2023-01-09T22:15:48.243Z,-17.93
2023-01-09T22:18:16.193Z,-17.91
2023-01-09T22:20:44.432Z,-17.90
2023-01-09T22:23:12.713Z,-17.77
2023-01-09T22:25:41.721Z,-17.82
2023-01-09T22:28:10.440Z,-17.83
2023-01-09T22:30:40.271Z,-17.74
2023-01-09T22:33:11.316Z,-17.76
2023-01-09T22:35:39.485Z,-17.82
2023-01-09T22:38:07.585Z,-17.68
2023-01-09T22:40:35.565Z,-17.71
2023-01-09T22:43:04.035Z,-17.87
2023-01-09T22:45:32.075Z,-17.89
2023-01-09T22:48:00.195Z,-17.81
2023-01-09T22:50:29.573Z,-17.65
2023-01-09T22:52:57.923Z,-17.53
2023-01-09T22:55:25.909Z,-17.61
2023-01-09T22:57:53.995Z,-17.60
2023-01-09T23:00:22.297Z,-17.45
2023-01-09T23:02:50.450Z,-17.60
2023-01-09T23:05:19.864Z,-17.55
2023-01-09T23:07:49.361Z,-17.54
2023-01-09T23:10:17.645Z,-17.54
2023-01-09T23:12:51.496Z,-17.40
2023-01-09T23:15:20.799Z,-17.38
2023-01-09T23:17:49.028Z,-17.32
2023-01-09T23:20:17.329Z,-17.24
2023-01-09T23:22:45.259Z,-17.22
2023-01-09T23:25:15.825Z,-17.22
2023-01-09T23:27:44.490Z,-17.20
2023-01-09T23:30:13.141Z,-17.26
2023-01-09T23:32:41.161Z,-17.37
2023-01-09T23:35:09.481Z,-17.31
2023-01-09T23:37:37.510Z,-17.07
2023-01-09T23:40:05.977Z,-17.13
2023-01-09T23:42:52.907Z,-17.07
2023-01-09T23:45:20.824Z,-17.06
2023-01-09T23:47:48.747Z,-17.10
2023-01-09T23:50:17.718Z,-17.06
2023-01-09T23:52:45.891Z,-16.95
2023-01-09T23:55:14.858Z,-16.95
2023-01-09T23:57:44.553Z,-16.89
